WetterOnline ( https://www.wetteronline.de )

Wetter aktuell Admannshagen-Bargeshagen

Aktuelles Wetter: Rostock-Warnemünde (10m)

6-stündlich | Neueste Meldungen
Ortszeit Temperatur Wetter
Fr, 27.05. 20:00 12.0° C leicht bewölkt
Fr, 27.05. 14:00 12.8° C bewölkt
Fr, 27.05. 8:00 12.6° C leicht bewölkt
Fr, 27.05. 2:00 12.0° C Regen
Do, 26.05. 20:00 15.2° C bedeckt
Do, 26.05. 14:00 16.5° C leichter Regen
Do, 26.05. 8:00 13.7° C bedeckt
Do, 26.05. 2:00 13.4° C bedeckt
Ortszeit Temperatur Wetter
Sa, 28.05. 0:10 10.9° C bewölkt
Sa, 28.05. 0:00 11.0° C wolkig
Fr, 27.05. 23:50 11.0° C wolkig
Fr, 27.05. 23:40 10.9° C bewölkt
Fr, 27.05. 23:30 11.1° C bewölkt
Fr, 27.05. 23:20 11.1° C bewölkt
Fr, 27.05. 23:00 11.3° C bewölkt
Fr, 27.05. 22:30 11.1° C wolkig
Fr, 27.05. 22:00 10.3° C leicht bewölkt
Fr, 27.05. 21:30 11.0° C bewölkt
Ortszeit Relative Feuchte Sichtweite
Fr, 27.05. 20:00 74% 30 km
Fr, 27.05. 14:00 72% 40 km
Fr, 27.05. 8:00 75% 24 km
Fr, 27.05. 2:00 94% 35 km
Do, 26.05. 20:00 63% 40 km
Do, 26.05. 14:00 52% 20 km
Do, 26.05. 8:00 85% 35 km
Do, 26.05. 2:00 76% 40 km
Ortszeit Relative Feuchte Sichtweite
Sa, 28.05. 0:10 75% -
Sa, 28.05. 0:00 75% 30 km
Fr, 27.05. 23:50 75% -
Fr, 27.05. 23:40 77% -
Fr, 27.05. 23:30 78% 30 km
Fr, 27.05. 23:20 78% -
Fr, 27.05. 23:00 79% 35 km
Fr, 27.05. 22:30 78% 40 km
Fr, 27.05. 22:00 80% 45 km
Fr, 27.05. 21:30 76% 35 km
Ortszeit Niederschlagsmenge Niederschlagsart
Fr, 27.05. 20:00 10 l/m2 in 12 Std. Regen
Fr, 27.05. 14:00 1 l/m2 in 6 Std. Regen
Fr, 27.05. 8:00 4 l/m2 in 12 Std. Regen
Fr, 27.05. 2:00 4 l/m2 in 6 Std. Regen
Do, 26.05. 20:00 0.0 l/m2 in 12 Std. -
Do, 26.05. 14:00 0.1 l/m2 in 6 Std. Niederschlag
Do, 26.05. 8:00 0.7 l/m2 in 12 Std. Regen
Do, 26.05. 2:00 0.4 l/m2 in 6 Std. Regen
Ortszeit Niederschlagsmenge Niederschlagsart
Sa, 28.05. 0:10 keine Meldung -
Sa, 28.05. 0:00 0.3 l/m2 in 1 Std. Regen
Fr, 27.05. 23:50 keine Meldung -
Fr, 27.05. 23:40 keine Meldung -
Fr, 27.05. 23:30 0.0 l/m2 in 1 Std. -
Fr, 27.05. 23:20 keine Meldung -
Fr, 27.05. 23:00 0.0 l/m2 in 1 Std. Regen
Fr, 27.05. 22:30 0.0 l/m2 in 1 Std. -
Fr, 27.05. 22:00 0.1 l/m2 in 1 Std. Regen
Fr, 27.05. 21:30 0.1 l/m2 in 1 Std. Schneeregen
Ortszeit Stärke Spitze Richtung
km/h Bft. km/h Grad Sektor
Fr, 27.05. 20:00 46 6 94 290° W
Fr, 27.05. 14:00 47 6 79 280° W
Fr, 27.05. 8:00 47 6 68 280° W
Fr, 27.05. 2:00 7 2 43 240° SW
Do, 26.05. 20:00 26 4 59 260° W
Do, 26.05. 14:00 41 6 61 270° W
Do, 26.05. 8:00 17 3 43 250° W
Do, 26.05. 2:00 13 3 57 210° SW
Ortszeit Stärke Spitze Richtung
km/h Bft. km/h Grad Sektor
Sa, 28.05. 0:10 48 6 - 280° W
Sa, 28.05. 0:00 48 6 69 270° W
Fr, 27.05. 23:50 48 6 - 270° W
Fr, 27.05. 23:40 50 7 - 280° W
Fr, 27.05. 23:30 39 6 59 270° W
Fr, 27.05. 23:20 39 6 - 270° W
Fr, 27.05. 23:00 44 6 63 270° W
Fr, 27.05. 22:30 43 6 61 280° W
Fr, 27.05. 22:00 29 5 61 260° W
Fr, 27.05. 21:30 41 6 59 280° W
Ortszeit Untergrenze Bedeckung Gattung
total tief tief mittel hoch
Fr, 27.05. 20:00 1140 m 6/8 1/8 - - -
Fr, 27.05. 14:00 1110 m 7/8 7/8 - - -
Fr, 27.05. 8:00 660 m 2/8 1/8 - - -
Fr, 27.05. 2:00 150 m 8/8 8/8 - - -
Do, 26.05. 20:00 3000 m 8/8 8/8 - - -
Do, 26.05. 14:00 1800 m 7/8 7/8 - - -
Do, 26.05. 8:00 570 m 8/8 8/8 - - -
Do, 26.05. 2:00 1290 m 8/8 8/8 - - -
Ortszeit Bedeckungsgrad in Achtel und Wolkenuntergrenze
Sa, 28.05. 0:10 7
Sa, 28.05. 0:00 4(810m) 5(1470m) 7(4800m)
Fr, 27.05. 23:50 4(810m) 5(1470m) 7(4800m)
Fr, 27.05. 23:40 7
Fr, 27.05. 23:30 5(660m) 7(1500m) 7(5100m)
Fr, 27.05. 23:20 5(660m) 7(1500m) 7(5100m)
Fr, 27.05. 23:00 2(600m) 6(960m) 7(1500m)
Fr, 27.05. 22:30 3(660m) 6(810m) 6(1020m)
Fr, 27.05. 22:00 1(570m) 5(3900m)
Fr, 27.05. 21:30 1(450m) 5(1320m) 7(1500m)
Ortszeit Luftdruck NN (hPa) Tendenz (hPa in 3 Std.)
Fr, 27.05. 20:00 1011 - 0,4
Fr, 27.05. 14:00 1012 - 0,1
Fr, 27.05. 8:00 1012 + 0,9
Fr, 27.05. 2:00 1012 - 3,0
Do, 26.05. 20:00 1015 - 0,3
Do, 26.05. 14:00 1015 + 1,7
Do, 26.05. 8:00 1012 + 0,9
Do, 26.05. 2:00 1012 - 1,1
Ortszeit Luftdruck NN (hPa) Tendenz (hPa in 3 Std.)
Sa, 28.05. 0:10 1011 keine Meldung
Sa, 28.05. 0:00 1011 - 0,5
Fr, 27.05. 23:50 1011 keine Meldung
Fr, 27.05. 23:40 1011 keine Meldung
Fr, 27.05. 23:30 1011 - 0,4
Fr, 27.05. 23:20 1011 keine Meldung
Fr, 27.05. 23:00 1011 - 0,3
Fr, 27.05. 22:30 1011 - 0,3
Fr, 27.05. 22:00 1011 - 0,2
Fr, 27.05. 21:30 1011 - 0,4
Ortszeit Schneehöhe (cm)
Fr, 27.05. 20:00 0
Fr, 27.05. 14:00 0
Fr, 27.05. 8:00 0
Fr, 27.05. 2:00 0
Do, 26.05. 20:00 0
Do, 26.05. 14:00 0
Do, 26.05. 8:00 0
Do, 26.05. 2:00 0
Ortszeit Schneehöhe (cm)
Sa, 28.05. 0:10 0
Sa, 28.05. 0:00 0
Fr, 27.05. 23:50 0
Fr, 27.05. 23:40 0
Fr, 27.05. 23:30 0
Fr, 27.05. 23:20 0
Fr, 27.05. 23:00 0
Fr, 27.05. 22:30 0
Fr, 27.05. 22:00 0
Fr, 27.05. 21:30 0
Link zu dieser Seite / Seite empfehlen

Das Wetter in ...